createdAt,value
2023-06-17T00:00:41.361Z,100329.22
2023-06-17T00:02:45.607Z,100332.72
2023-06-17T00:04:49.410Z,100326.50
2023-06-17T00:06:52.867Z,100328.56
2023-06-17T00:09:00.674Z,100335.03
2023-06-17T00:11:05.190Z,100327.13
2023-06-17T00:13:10.333Z,100328.09
2023-06-17T00:15:14.589Z,100323.44
2023-06-17T00:17:21.509Z,100327.41
2023-06-17T00:19:25.888Z,100321.50
2023-06-17T00:21:28.932Z,100324.50
2023-06-17T00:23:32.272Z,100320.03
2023-06-17T00:25:35.301Z,100318.31
2023-06-17T00:27:38.946Z,100318.63
2023-06-17T00:29:42.263Z,100319.53
2023-06-17T00:31:45.558Z,100317.59
2023-06-17T00:33:50.314Z,100324.09
2023-06-17T00:35:55.754Z,100312.91
2023-06-17T00:38:00.733Z,100321.03
2023-06-17T00:40:08.966Z,100306.69
2023-06-17T00:42:13.318Z,100311.84
2023-06-17T00:44:17.505Z,100317.69
2023-06-17T00:46:31.122Z,100311.59
2023-06-17T00:48:34.785Z,100304.81
2023-06-17T00:50:39.937Z,100306.09
2023-06-17T00:52:45.825Z,100311.75
2023-06-17T00:54:49.248Z,100303.94
2023-06-17T00:56:54.355Z,100309.63
2023-06-17T00:58:58.874Z,100317.53
2023-06-17T01:01:02.171Z,100319.59
2023-06-17T01:03:06.436Z,100311.66
2023-06-17T01:05:12.730Z,100323.09
2023-06-17T01:07:24.528Z,100321.47
2023-06-17T01:09:31.688Z,100320.53
2023-06-17T01:11:35.897Z,100313.78
2023-06-17T01:13:39.269Z,100317.31
2023-06-17T01:15:43.445Z,100310.78
2023-06-17T01:17:47.742Z,100318.16
2023-06-17T01:19:51.629Z,100303.09
2023-06-17T01:21:55.142Z,100311.25
2023-06-17T01:24:05.054Z,100307.72
2023-06-17T01:26:09.850Z,100306.00
2023-06-17T01:28:17.310Z,100313.28
2023-06-17T01:30:21.349Z,100304.41
2023-06-17T01:32:24.593Z,100314.00
2023-06-17T01:34:32.461Z,100308.47
2023-06-17T01:36:37.704Z,100304.53
2023-06-17T01:38:44.303Z,100306.97
2023-06-17T01:40:47.709Z,100301.00
2023-06-17T01:42:54.183Z,100300.13
2023-06-17T01:44:57.911Z,100303.97
2023-06-17T01:47:01.202Z,100299.44
2023-06-17T01:49:04.268Z,100300.84
2023-06-17T01:51:07.945Z,100295.97
2023-06-17T01:53:10.976Z,100298.91
2023-06-17T01:55:14.614Z,100301.69
2023-06-17T01:57:17.652Z,100297.22
2023-06-17T01:59:22.238Z,100308.59
2023-06-17T02:01:25.531Z,100293.34
2023-06-17T02:03:29.110Z,100297.91
2023-06-17T02:05:32.219Z,100300.69
2023-06-17T02:07:35.723Z,100292.03
2023-06-17T02:09:39.776Z,100294.94
2023-06-17T02:11:44.756Z,100286.81
2023-06-17T02:13:47.707Z,100291.41
2023-06-17T02:15:52.186Z,100290.47
2023-06-17T02:17:55.318Z,100297.16
2023-06-17T02:19:58.540Z,100285.81
2023-06-17T02:22:01.586Z,100286.63
2023-06-17T02:24:05.224Z,100288.59
2023-06-17T02:26:08.292Z,100287.56
2023-06-17T02:28:12.364Z,100297.91
2023-06-17T02:30:15.960Z,100301.88
2023-06-17T02:32:21.249Z,100301.03
2023-06-17T02:34:24.451Z,100301.03
2023-06-17T02:36:28.296Z,100297.81
2023-06-17T02:38:31.328Z,100292.94
2023-06-17T02:40:36.061Z,100295.44
2023-06-17T02:42:39.225Z,100290.63
2023-06-17T02:44:43.383Z,100291.53
2023-06-17T02:46:46.475Z,100292.59
2023-06-17T02:48:51.587Z,100290.22
2023-06-17T02:50:56.156Z,100283.19
2023-06-17T02:52:59.282Z,100288.28
2023-06-17T02:55:07.198Z,100283.94
2023-06-17T02:57:10.281Z,100281.44
2023-06-17T02:59:14.926Z,100287.19
2023-06-17T03:01:18.450Z,100278.97
2023-06-17T03:03:24.354Z,100271.75
2023-06-17T03:05:30.870Z,100283.69
2023-06-17T03:07:37.673Z,100287.78
2023-06-17T03:09:40.862Z,100293.28
2023-06-17T03:11:43.937Z,100293.66
2023-06-17T03:13:47.072Z,100282.31
2023-06-17T03:16:02.453Z,100289.69
2023-06-17T03:18:07.766Z,100290.00
2023-06-17T03:20:11.968Z,100291.59
2023-06-17T03:22:17.676Z,100282.84
2023-06-17T03:24:25.008Z,100286.47
2023-06-17T03:26:28.933Z,100282.84
2023-06-17T03:28:33.660Z,100282.25
2023-06-17T03:30:37.533Z,100284.47
2023-06-17T03:32:41.186Z,100285.38
2023-06-17T03:34:45.092Z,100283.41
2023-06-17T03:36:50.622Z,100281.34
2023-06-17T03:38:55.155Z,100280.88
2023-06-17T03:40:58.743Z,100274.88
2023-06-17T03:43:02.135Z,100276.03
2023-06-17T03:45:06.535Z,100272.41
2023-06-17T03:47:10.220Z,100276.50
2023-06-17T03:49:13.574Z,100280.75
2023-06-17T03:51:18.075Z,100276.94
2023-06-17T03:53:21.261Z,100272.28
2023-06-17T03:55:26.244Z,100283.59
2023-06-17T03:57:31.195Z,100274.75
2023-06-17T03:59:34.510Z,100275.25
2023-06-17T04:01:38.233Z,100277.16
2023-06-17T04:03:45.603Z,100275.63
2023-06-17T04:05:51.306Z,100278.28
2023-06-17T04:07:54.948Z,100276.69
2023-06-17T04:10:06.432Z,100280.00
2023-06-17T04:12:14.484Z,100281.16
2023-06-17T04:14:19.018Z,100278.69
2023-06-17T04:16:26.984Z,100277.72
2023-06-17T04:18:30.555Z,100276.84
2023-06-17T04:20:38.962Z,100279.25
2023-06-17T04:22:47.234Z,100284.94
2023-06-17T04:24:57.291Z,100285.50
2023-06-17T04:27:04.188Z,100279.59
2023-06-17T04:29:09.960Z,100286.72
2023-06-17T04:31:15.124Z,100292.50
2023-06-17T04:33:19.256Z,100290.44
2023-06-17T04:35:22.936Z,100293.69
2023-06-17T04:37:26.290Z,100291.16
2023-06-17T04:39:31.232Z,100294.22
2023-06-17T04:41:34.412Z,100291.53
2023-06-17T04:43:38.681Z,100284.31
2023-06-17T04:45:48.583Z,100277.53
2023-06-17T04:47:51.739Z,100283.53
2023-06-17T04:49:55.060Z,100281.97
2023-06-17T04:51:58.742Z,100278.66
2023-06-17T04:54:01.939Z,100278.09
2023-06-17T04:56:07.833Z,100285.22
2023-06-17T04:58:11.633Z,100283.44
2023-06-17T05:00:22.968Z,100284.53
2023-06-17T05:02:28.800Z,100275.41
2023-06-17T05:04:32.205Z,100281.84
2023-06-17T05:06:38.286Z,100273.41
2023-06-17T05:08:41.458Z,100275.72
2023-06-17T05:10:45.210Z,100275.16
2023-06-17T05:12:48.112Z,100266.84
2023-06-17T05:14:51.322Z,100268.25
2023-06-17T05:16:55.363Z,100266.31
2023-06-17T05:18:59.914Z,100269.16
2023-06-17T05:21:05.273Z,100264.91
2023-06-17T05:23:09.332Z,100266.59
2023-06-17T05:25:12.810Z,100263.84
2023-06-17T05:27:16.288Z,100260.66
2023-06-17T05:29:20.349Z,100251.97
2023-06-17T05:31:24.770Z,100257.91
2023-06-17T05:33:30.454Z,100260.66
2023-06-17T05:35:36.381Z,100260.25
2023-06-17T05:37:39.916Z,100270.22
2023-06-17T05:39:42.867Z,100261.72
2023-06-17T05:41:46.520Z,100271.63
2023-06-17T05:43:51.550Z,100266.22
2023-06-17T05:45:58.241Z,100261.31
2023-06-17T05:48:02.262Z,100261.34
2023-06-17T05:50:10.777Z,100254.69
2023-06-17T05:52:17.702Z,100261.63
2023-06-17T05:54:21.943Z,100265.56
2023-06-17T05:56:24.923Z,100262.72
2023-06-17T05:58:28.812Z,100257.81
2023-06-17T06:00:38.790Z,100259.72
2023-06-17T06:02:44.508Z,100267.59
2023-06-17T06:04:51.883Z,100268.13
2023-06-17T06:06:55.345Z,100267.63
2023-06-17T06:09:01.529Z,100274.47
2023-06-17T06:11:05.262Z,100269.72
2023-06-17T06:13:10.005Z,100266.09
2023-06-17T06:15:13.810Z,100271.28
2023-06-17T06:17:18.346Z,100271.81
2023-06-17T06:19:22.260Z,100276.00
2023-06-17T06:21:25.870Z,100266.97
2023-06-17T06:23:29.446Z,100263.03
2023-06-17T06:25:36.846Z,100270.00
2023-06-17T06:27:40.284Z,100263.53
2023-06-17T06:29:44.674Z,100259.16
2023-06-17T06:31:48.013Z,100256.41
2023-06-17T06:33:54.573Z,100263.41
2023-06-17T06:35:58.555Z,100262.72
2023-06-17T06:38:03.477Z,100265.63
2023-06-17T06:40:08.824Z,100265.50
2023-06-17T06:42:15.889Z,100264.56
2023-06-17T06:44:38.579Z,100269.13
2023-06-17T06:46:42.269Z,100273.56
2023-06-17T06:48:45.560Z,100270.19
2023-06-17T06:50:49.584Z,100267.44
2023-06-17T06:52:55.244Z,100270.56
2023-06-17T06:55:01.709Z,100276.00
2023-06-17T06:57:05.397Z,100265.63
2023-06-17T06:59:11.330Z,100271.81
2023-06-17T07:01:14.700Z,100273.03
2023-06-17T07:03:18.401Z,100275.28
2023-06-17T07:05:23.093Z,100275.81
2023-06-17T07:07:30.709Z,100275.88
2023-06-17T07:09:34.288Z,100276.00
2023-06-17T07:11:38.098Z,100276.53
2023-06-17T07:13:41.332Z,100284.84
2023-06-17T07:15:46.495Z,100278.81
2023-06-17T07:17:50.892Z,100278.00
2023-06-17T07:19:56.300Z,100289.03
2023-06-17T07:21:59.419Z,100279.41
2023-06-17T07:24:03.906Z,100283.00
2023-06-17T07:26:08.774Z,100284.97
2023-06-17T07:28:12.591Z,100279.75
2023-06-17T07:30:16.537Z,100275.81
2023-06-17T07:32:21.706Z,100277.25
2023-06-17T07:34:26.047Z,100271.78
2023-06-17T07:36:29.594Z,100262.84
2023-06-17T07:38:34.531Z,100265.38
2023-06-17T07:40:38.523Z,100261.47
2023-06-17T07:42:42.813Z,100263.00
2023-06-17T07:44:47.677Z,100265.16
2023-06-17T07:46:50.800Z,100267.16
2023-06-17T07:48:55.171Z,100265.72
2023-06-17T07:50:58.153Z,100268.03
2023-06-17T07:53:01.489Z,100267.41
2023-06-17T07:55:08.197Z,100265.09
2023-06-17T07:57:11.690Z,100263.50
2023-06-17T07:59:14.738Z,100277.28
2023-06-17T08:01:17.844Z,100274.13
2023-06-17T08:03:22.086Z,100274.59
2023-06-17T08:05:26.539Z,100264.75
2023-06-17T08:07:29.450Z,100276.66
2023-06-17T08:09:32.628Z,100275.06
2023-06-17T08:11:35.514Z,100271.38
2023-06-17T08:13:38.497Z,100272.06
2023-06-17T08:15:41.398Z,100275.44
2023-06-17T08:17:44.394Z,100268.72
2023-06-17T08:19:47.423Z,100266.00
2023-06-17T08:21:51.769Z,100265.19
2023-06-17T08:23:54.774Z,100268.34
2023-06-17T08:25:58.001Z,100259.91
2023-06-17T08:28:01.077Z,100264.19
2023-06-17T08:30:04.878Z,100255.72
2023-06-17T08:32:08.446Z,100261.81
2023-06-17T08:34:11.503Z,100252.91
2023-06-17T08:36:14.503Z,100257.31
2023-06-17T08:38:19.076Z,100253.13
2023-06-17T08:40:24.353Z,100250.97
2023-06-17T08:42:29.062Z,100245.16
2023-06-17T08:44:34.554Z,100253.25
2023-06-17T08:46:38.376Z,100248.69
2023-06-17T08:48:42.175Z,100247.63
2023-06-17T08:50:46.168Z,100249.75
2023-06-17T08:52:49.824Z,100247.84
2023-06-17T08:54:56.286Z,100250.38
2023-06-17T08:56:59.234Z,100242.97
2023-06-17T08:59:02.256Z,100246.13
2023-06-17T09:01:06.046Z,100242.03
2023-06-17T09:03:10.568Z,100252.34
2023-06-17T09:05:13.954Z,100251.03
2023-06-17T09:07:16.975Z,100243.66
2023-06-17T09:09:20.117Z,100238.47
2023-06-17T09:11:26.171Z,100241.41
2023-06-17T09:13:29.304Z,100242.34
2023-06-17T09:15:32.337Z,100234.28
2023-06-17T09:17:35.537Z,100235.75
2023-06-17T09:19:41.749Z,100237.66
2023-06-17T09:21:48.236Z,100237.09
2023-06-17T09:23:55.968Z,100237.88
2023-06-17T09:26:05.126Z,100236.69
2023-06-17T09:28:16.097Z,100245.31
2023-06-17T09:30:24.383Z,100237.94
2023-06-17T09:32:39.487Z,100243.84
2023-06-17T09:34:50.034Z,100236.31
2023-06-17T09:36:55.778Z,100234.56
2023-06-17T09:38:58.865Z,100238.28
2023-06-17T09:41:02.092Z,100239.53
2023-06-17T09:43:25.951Z,100234.16
2023-06-17T09:45:31.009Z,100241.63
2023-06-17T09:47:37.701Z,100230.97
2023-06-17T09:49:44.903Z,100234.31
2023-06-17T09:51:48.287Z,100237.91
2023-06-17T09:53:52.608Z,100225.22
2023-06-17T09:55:58.159Z,100229.69
2023-06-17T09:58:02.988Z,100230.97
2023-06-17T10:00:11.380Z,100230.03
2023-06-17T10:02:16.350Z,100225.22
2023-06-17T10:04:19.353Z,100224.75
2023-06-17T10:06:22.500Z,100223.50
2023-06-17T10:08:26.587Z,100228.31
2023-06-17T10:10:29.868Z,100229.22
2023-06-17T10:12:33.900Z,100225.16
2023-06-17T10:14:37.518Z,100231.66
2023-06-17T10:21:02.530Z,100226.59
2023-06-17T10:23:06.151Z,100234.06
2023-06-17T10:25:11.410Z,100222.38
2023-06-17T10:27:14.569Z,100222.66
2023-06-17T10:29:17.744Z,100225.59
2023-06-17T10:31:27.557Z,100228.69
2023-06-17T10:33:31.548Z,100219.72
2023-06-17T10:35:41.448Z,100217.16
2023-06-17T10:37:48.353Z,100218.00
2023-06-17T10:39:54.056Z,100221.47
2023-06-17T10:41:59.118Z,100219.22
2023-06-17T10:44:03.474Z,100218.47
2023-06-17T10:46:06.972Z,100210.38
2023-06-17T10:48:16.625Z,100221.19
2023-06-17T10:50:23.577Z,100220.44
2023-06-17T10:52:32.142Z,100226.13
2023-06-17T10:54:45.988Z,100221.84
2023-06-17T10:56:49.125Z,100215.19
2023-06-17T10:58:52.980Z,100221.53
2023-06-17T11:01:00.538Z,100217.13
2023-06-17T11:03:03.970Z,100221.81
2023-06-17T11:05:08.053Z,100210.81
2023-06-17T11:07:11.537Z,100204.66
2023-06-17T11:09:14.964Z,100210.72
2023-06-17T11:11:20.926Z,100204.13
2023-06-17T11:13:24.936Z,100206.63
2023-06-17T11:15:30.159Z,100208.91
2023-06-17T11:17:33.189Z,100196.50
2023-06-17T11:19:37.740Z,100199.56
2023-06-17T11:21:40.705Z,100203.56
2023-06-17T11:23:45.773Z,100190.03
2023-06-17T11:25:50.603Z,100190.84
2023-06-17T11:27:57.109Z,100191.31
2023-06-17T11:30:00.193Z,100185.00
2023-06-17T11:32:03.848Z,100185.72
2023-06-17T11:34:09.796Z,100187.94
2023-06-17T11:36:15.187Z,100184.94
2023-06-17T11:38:19.560Z,100184.38
2023-06-17T11:40:24.099Z,100176.81
2023-06-17T11:42:27.752Z,100173.91
2023-06-17T11:44:34.039Z,100174.41
2023-06-17T11:46:38.615Z,100180.41
2023-06-17T11:48:42.186Z,100173.00
2023-06-17T11:50:45.686Z,100171.69
2023-06-17T11:52:57.183Z,100169.94
2023-06-17T11:55:00.637Z,100165.59
2023-06-17T11:57:04.172Z,100170.22
2023-06-17T11:59:08.051Z,100164.50
2023-06-17T12:01:13.960Z,100161.31
2023-06-17T12:03:17.147Z,100163.75
2023-06-17T12:05:20.861Z,100157.44
2023-06-17T12:07:24.957Z,100156.66
2023-06-17T12:09:29.173Z,100159.16
2023-06-17T12:11:33.874Z,100150.53
2023-06-17T12:13:42.271Z,100156.28
2023-06-17T12:15:48.339Z,100154.75
2023-06-17T12:17:52.835Z,100153.47
2023-06-17T12:20:08.513Z,100148.00
2023-06-17T12:22:13.907Z,100144.09
2023-06-17T12:24:18.457Z,100143.47
2023-06-17T12:26:26.060Z,100149.16
2023-06-17T12:28:31.962Z,100150.53
2023-06-17T12:30:36.350Z,100151.22
2023-06-17T12:32:40.931Z,100144.94
2023-06-17T12:34:46.470Z,100143.19
2023-06-17T12:36:49.866Z,100142.25
2023-06-17T12:38:54.400Z,100140.47
2023-06-17T12:40:58.311Z,100139.34
2023-06-17T12:43:01.887Z,100125.53
2023-06-17T12:45:07.530Z,100121.13
2023-06-17T12:47:10.556Z,100121.97
2023-06-17T12:49:15.491Z,100119.03
2023-06-17T12:51:20.002Z,100118.50
2023-06-17T12:53:23.193Z,100111.81
2023-06-17T12:55:26.294Z,100116.13
2023-06-17T12:57:31.359Z,100118.88
2023-06-17T12:59:35.101Z,100119.50
2023-06-17T13:01:38.315Z,100115.88
2023-06-17T13:03:42.692Z,100110.72
2023-06-17T13:05:46.952Z,100110.53
2023-06-17T13:07:51.541Z,100102.97
2023-06-17T13:09:54.931Z,100105.47
2023-06-17T13:11:58.073Z,100107.91
2023-06-17T13:14:03.614Z,100099.91
2023-06-17T13:16:07.311Z,100101.16
2023-06-17T13:18:14.013Z,100096.00
2023-06-17T13:20:17.378Z,100105.75
2023-06-17T13:22:21.130Z,100101.84
2023-06-17T13:24:25.805Z,100096.25
2023-06-17T13:26:31.835Z,100100.69
2023-06-17T13:28:36.357Z,100098.78
2023-06-17T13:30:39.297Z,100087.91
2023-06-17T13:32:42.734Z,100099.41
2023-06-17T13:34:46.725Z,100096.19
2023-06-17T13:36:49.979Z,100088.16
2023-06-17T13:38:53.319Z,100092.66
2023-06-17T13:40:58.034Z,100103.94
2023-06-17T13:43:01.674Z,100081.19
2023-06-17T13:45:05.716Z,100080.81
2023-06-17T13:47:08.963Z,100083.84
2023-06-17T13:49:12.014Z,100078.16
2023-06-17T13:51:15.629Z,100071.75
2023-06-17T13:53:18.712Z,100067.63
2023-06-17T13:55:21.682Z,100068.94
2023-06-17T13:57:26.583Z,100076.38
2023-06-17T13:59:30.510Z,100069.84
2023-06-17T14:01:34.009Z,100073.66
2023-06-17T14:03:37.509Z,100068.16
2023-06-17T14:05:40.909Z,100064.00
2023-06-17T14:07:44.349Z,100066.09
2023-06-17T14:09:48.218Z,100062.94
2023-06-17T14:11:52.701Z,100073.69
2023-06-17T14:13:57.511Z,100065.91
2023-06-17T14:16:02.053Z,100054.31
2023-06-17T14:18:06.058Z,100063.56
2023-06-17T14:20:10.739Z,100065.06
2023-06-17T14:22:14.596Z,100065.25
2023-06-17T14:24:23.246Z,100060.84
2023-06-17T14:26:28.196Z,100062.72
2023-06-17T14:28:36.517Z,100063.00
2023-06-17T14:30:42.713Z,100062.16
2023-06-17T14:32:47.817Z,100054.41
2023-06-17T14:34:51.547Z,100056.25
2023-06-17T14:36:55.195Z,100053.59
2023-06-17T14:39:01.901Z,100051.38
2023-06-17T14:41:05.114Z,100057.75
2023-06-17T14:43:08.620Z,100056.56
2023-06-17T14:45:13.209Z,100057.91
2023-06-17T14:47:21.458Z,100051.38
2023-06-17T14:49:25.220Z,100055.31
2023-06-17T14:51:28.936Z,100054.16
2023-06-17T14:53:33.509Z,100049.53
2023-06-17T14:55:37.686Z,100049.97
2023-06-17T14:57:41.294Z,100051.00
2023-06-17T14:59:46.060Z,100055.31
2023-06-17T15:01:49.389Z,100047.84
2023-06-17T15:03:54.256Z,100052.47
2023-06-17T15:05:57.595Z,100050.78
2023-06-17T15:08:00.922Z,100054.34
2023-06-17T15:10:04.642Z,100043.09
2023-06-17T15:12:12.790Z,100042.66
2023-06-17T15:14:16.221Z,100042.38
2023-06-17T15:16:20.190Z,100040.13
2023-06-17T15:18:24.001Z,100045.97
2023-06-17T15:20:29.028Z,100042.16
2023-06-17T15:22:33.475Z,100036.53
2023-06-17T15:24:36.928Z,100040.84
2023-06-17T15:26:41.546Z,100035.19
2023-06-17T15:28:44.594Z,100037.31
2023-06-17T15:30:47.758Z,100033.72
2023-06-17T15:32:53.094Z,100038.94
2023-06-17T15:34:56.292Z,100035.91
2023-06-17T15:37:00.671Z,100040.38
2023-06-17T15:39:17.127Z,100041.22
2023-06-17T15:41:20.051Z,100035.88
2023-06-17T15:43:22.956Z,100034.31
2023-06-17T15:45:25.920Z,100029.22
2023-06-17T15:47:28.913Z,100036.06
2023-06-17T15:49:31.974Z,100029.44
2023-06-17T15:51:35.079Z,100026.06
2023-06-17T15:53:39.420Z,100032.25
2023-06-17T15:55:42.505Z,100030.50
2023-06-17T15:57:45.383Z,100029.38
2023-06-17T15:59:48.332Z,100032.38
2023-06-17T16:01:51.346Z,100023.72
2023-06-17T16:03:54.386Z,100025.38
2023-06-17T16:05:57.661Z,100021.75
2023-06-17T16:08:00.866Z,100011.59
2023-06-17T16:10:05.348Z,100013.25
2023-06-17T16:12:09.426Z,100021.25
2023-06-17T16:14:12.525Z,100017.28
2023-06-17T16:16:15.715Z,100010.28
2023-06-17T16:18:18.810Z,100011.03
2023-06-17T16:20:22.271Z,100003.53
2023-06-17T16:22:25.920Z,100014.47
2023-06-17T16:24:29.127Z,100007.38
2023-06-17T16:26:33.791Z,100007.63
2023-06-17T16:28:36.778Z,100008.16
2023-06-17T16:30:42.476Z,100012.44
2023-06-17T16:32:45.592Z,100004.19
2023-06-17T16:34:48.901Z,100003.19
2023-06-17T16:36:51.920Z,100004.22
2023-06-17T16:38:55.202Z,100006.91
2023-06-17T16:40:58.301Z,100010.03
2023-06-17T16:43:02.967Z,100007.44
2023-06-17T16:45:08.309Z,100010.06
2023-06-17T16:47:11.490Z,100002.94
2023-06-17T16:49:14.652Z,100000.47
2023-06-17T16:51:18.348Z,100003.81
2023-06-17T16:53:21.937Z,100005.47
2023-06-17T16:55:24.971Z,100002.56
2023-06-17T16:57:28.245Z,100003.81
2023-06-17T16:59:33.154Z,100007.00
2023-06-17T17:01:36.217Z,99999.22
2023-06-17T17:03:39.748Z,99999.81
2023-06-17T17:05:43.065Z,100009.56
2023-06-17T17:07:46.161Z,100016.13
2023-06-17T17:09:49.361Z,100012.75
2023-06-17T17:11:52.511Z,100009.16
2023-06-17T17:13:55.546Z,100012.53
2023-06-17T17:16:00.029Z,100006.66
2023-06-17T17:18:05.098Z,100009.38
2023-06-17T17:20:09.836Z,100014.56
2023-06-17T17:22:13.126Z,100010.53
2023-06-17T17:24:16.485Z,100012.75
2023-06-17T17:26:19.762Z,100015.28
2023-06-17T17:28:22.743Z,100014.81
2023-06-17T17:30:26.197Z,100016.28
2023-06-17T17:32:30.845Z,100019.09
2023-06-17T17:34:35.138Z,100011.78
2023-06-17T17:36:38.410Z,100012.63
2023-06-17T17:38:46.123Z,100020.13
2023-06-17T17:40:50.770Z,100014.31
2023-06-17T17:42:54.209Z,100016.38
2023-06-17T17:44:58.204Z,100012.75
2023-06-17T17:47:01.412Z,100017.94
2023-06-17T17:49:06.141Z,100019.59
2023-06-17T17:51:09.481Z,100014.94
2023-06-17T17:53:13.188Z,100015.97
2023-06-17T17:55:18.234Z,100022.91
2023-06-17T17:57:22.265Z,100020.75
2023-06-17T17:59:25.568Z,100019.94
2023-06-17T18:01:29.148Z,100018.63
2023-06-17T18:03:32.766Z,100022.28
2023-06-17T18:05:37.479Z,100022.66
2023-06-17T18:07:40.629Z,100025.06
2023-06-17T18:09:44.153Z,100031.69
2023-06-17T18:11:47.261Z,100020.75
2023-06-17T18:13:51.997Z,100028.72
2023-06-17T18:15:57.965Z,100028.72
2023-06-17T18:18:03.806Z,100030.81
2023-06-17T18:20:10.749Z,100034.69
2023-06-17T18:22:16.838Z,100025.53
2023-06-17T18:24:20.733Z,100031.53
2023-06-17T18:26:24.365Z,100021.72
2023-06-17T18:28:27.727Z,100023.47
2023-06-17T18:30:32.048Z,100021.50
2023-06-17T18:32:36.707Z,100019.16
2023-06-17T18:34:39.985Z,100023.63
2023-06-17T18:36:44.688Z,100023.81
2023-06-17T18:38:49.324Z,100023.72
2023-06-17T18:40:54.684Z,100033.25
2023-06-17T18:42:57.926Z,100029.63
2023-06-17T18:45:01.444Z,100032.69
2023-06-17T18:47:05.882Z,100030.72
2023-06-17T18:49:11.285Z,100031.44
2023-06-17T18:51:16.795Z,100030.47
2023-06-17T18:53:21.485Z,100030.03
2023-06-17T18:55:28.550Z,100038.72
2023-06-17T18:57:34.414Z,100037.09
2023-06-17T18:59:37.974Z,100033.41
2023-06-17T19:01:41.862Z,100032.44
2023-06-17T19:03:45.905Z,100037.25
2023-06-17T19:05:51.689Z,100039.66
2023-06-17T19:07:55.141Z,100039.00
2023-06-17T19:09:58.762Z,100047.22
2023-06-17T19:12:04.620Z,100045.00
2023-06-17T19:14:08.286Z,100045.56
2023-06-17T19:16:11.806Z,100051.53
2023-06-17T19:18:15.413Z,100046.47
2023-06-17T19:20:18.536Z,100053.78
2023-06-17T19:22:21.618Z,100058.59
2023-06-17T19:24:24.828Z,100045.06
2023-06-17T19:26:30.353Z,100050.00
2023-06-17T19:28:35.108Z,100055.50
2023-06-17T19:30:38.551Z,100056.31
2023-06-17T19:32:41.840Z,100059.75
2023-06-17T19:34:47.445Z,100047.91
2023-06-17T19:36:51.360Z,100061.84
2023-06-17T19:38:54.867Z,100053.53
2023-06-17T19:40:58.779Z,100061.16
2023-06-17T19:43:02.107Z,100062.16
2023-06-17T19:45:10.382Z,100060.47
2023-06-17T19:47:15.998Z,100057.41
2023-06-17T19:49:19.064Z,100065.19
2023-06-17T19:51:22.630Z,100067.00
2023-06-17T19:53:25.865Z,100060.72
2023-06-17T19:55:28.814Z,100071.06
2023-06-17T19:57:33.070Z,100071.41
2023-06-17T19:59:36.375Z,100066.78
2023-06-17T20:01:40.810Z,100067.44
2023-06-17T20:03:43.763Z,100065.38
2023-06-17T20:05:47.430Z,100071.91
2023-06-17T20:07:52.293Z,100067.13
2023-06-17T20:09:55.827Z,100069.19
2023-06-17T20:11:58.765Z,100060.91
2023-06-17T20:14:02.278Z,100072.97
2023-06-17T20:16:06.062Z,100073.16
2023-06-17T20:18:11.131Z,100074.13
2023-06-17T20:20:17.997Z,100069.69
2023-06-17T20:22:20.932Z,100071.78
2023-06-17T20:24:23.836Z,100074.53
2023-06-17T20:26:27.112Z,100080.16
2023-06-17T20:28:31.707Z,100078.09
2023-06-17T20:30:34.622Z,100076.84
2023-06-17T20:32:37.720Z,100068.13
2023-06-17T20:34:42.538Z,100078.09
2023-06-17T20:36:45.989Z,100079.56
2023-06-17T20:38:49.005Z,100077.63
2023-06-17T20:40:52.533Z,100066.75
2023-06-17T20:42:55.520Z,100072.53
2023-06-17T20:44:58.703Z,100067.75
2023-06-17T20:47:02.140Z,100073.91
2023-06-17T20:49:05.182Z,100076.75
2023-06-17T20:51:11.466Z,100067.31
2023-06-17T20:53:14.610Z,100067.16
2023-06-17T20:55:17.802Z,100064.47
2023-06-17T20:57:20.819Z,100070.31
2023-06-17T20:59:25.675Z,100068.91
2023-06-17T21:01:28.984Z,100072.41
2023-06-17T21:03:32.233Z,100070.91
2023-06-17T21:05:35.468Z,100075.31
2023-06-17T21:07:39.887Z,100063.13
2023-06-17T21:09:43.932Z,100071.59
2023-06-17T21:11:47.239Z,100067.03
2023-06-17T21:13:50.592Z,100068.53
2023-06-17T21:15:53.654Z,100070.94
2023-06-17T21:17:57.471Z,100069.94
2023-06-17T21:20:00.633Z,100077.03
2023-06-17T21:22:04.058Z,100070.25
2023-06-17T21:24:08.974Z,100072.25
2023-06-17T21:26:12.111Z,100070.91
2023-06-17T21:28:15.288Z,100075.16
2023-06-17T21:30:18.438Z,100077.75
2023-06-17T21:32:22.101Z,100076.47
2023-06-17T21:34:25.332Z,100068.16
2023-06-17T21:36:28.619Z,100077.00
2023-06-17T21:38:32.159Z,100071.34
2023-06-17T21:40:36.490Z,100072.50
2023-06-17T21:42:39.973Z,100067.63
2023-06-17T21:44:42.908Z,100075.28
2023-06-17T21:46:45.903Z,100077.84
2023-06-17T21:48:48.953Z,100076.13
2023-06-17T21:50:52.255Z,100080.25
2023-06-17T21:52:56.950Z,100082.66
2023-06-17T21:54:59.902Z,100079.25
2023-06-17T21:57:04.393Z,100077.88
2023-06-17T21:59:08.262Z,100082.41
2023-06-17T22:01:11.499Z,100076.75
2023-06-17T22:03:15.211Z,100073.91
2023-06-17T22:05:19.182Z,100066.50
2023-06-17T22:07:22.175Z,100068.78
2023-06-17T22:09:25.434Z,100072.31
2023-06-17T22:11:28.401Z,100069.06
2023-06-17T22:13:32.796Z,100075.88
2023-06-17T22:15:35.827Z,100070.19
2023-06-17T22:17:38.973Z,100073.75
2023-06-17T22:19:42.006Z,100070.63
2023-06-17T22:21:45.439Z,100072.47
2023-06-17T22:23:48.395Z,100066.38
2023-06-17T22:25:51.264Z,100066.50
2023-06-17T22:27:56.572Z,100064.22
2023-06-17T22:30:01.206Z,100069.88
2023-06-17T22:32:04.385Z,100071.72
2023-06-17T22:34:07.402Z,100065.94
2023-06-17T22:36:10.339Z,100068.22
2023-06-17T22:38:18.940Z,100063.38
2023-06-17T22:40:22.749Z,100066.63
2023-06-17T22:42:28.401Z,100070.91
2023-06-17T22:44:31.578Z,100067.31
2023-06-17T22:46:36.341Z,100075.75
2023-06-17T22:48:39.442Z,100074.06
2023-06-17T22:50:42.649Z,100078.66
2023-06-17T22:52:45.581Z,100070.31
2023-06-17T22:54:50.100Z,100076.78
2023-06-17T22:56:53.293Z,100066.88
2023-06-17T22:58:57.998Z,100083.75
2023-06-17T23:01:01.570Z,100084.44
2023-06-17T23:03:06.418Z,100083.34
2023-06-17T23:05:10.996Z,100070.94
2023-06-17T23:07:14.229Z,100083.19
2023-06-17T23:09:17.897Z,100069.22
2023-06-17T23:11:21.173Z,100072.34
2023-06-17T23:13:24.202Z,100074.41
2023-06-17T23:15:27.104Z,100074.38
2023-06-17T23:17:30.465Z,100080.53
2023-06-17T23:19:35.200Z,100073.88
2023-06-17T23:21:41.078Z,100079.75
2023-06-17T23:23:45.065Z,100075.03
2023-06-17T23:25:50.766Z,100073.97
2023-06-17T23:27:54.488Z,100075.63
2023-06-17T23:29:59.879Z,100069.84
2023-06-17T23:32:05.197Z,100075.50
2023-06-17T23:34:08.488Z,100079.16
2023-06-17T23:36:12.793Z,100074.38
2023-06-17T23:38:15.967Z,100082.00
2023-06-17T23:40:19.656Z,100078.25
2023-06-17T23:42:22.785Z,100074.31
2023-06-17T23:44:26.148Z,100080.34